sensor_id;sensor_type;location;lat;lon;timestamp;P1;durP1;ratioP1;P2;durP2;ratioP2
71715;SDS011;59568;52.128;5.434;2023-07-16T00:01:00;3.92;;;0.60;;
71715;SDS011;59568;52.128;5.434;2023-07-16T00:03:28;4.93;;;0.60;;
71715;SDS011;59568;52.128;5.434;2023-07-16T00:05:55;3.30;;;0.60;;
71715;SDS011;59568;52.128;5.434;2023-07-16T00:08:22;5.10;;;0.90;;
71715;SDS011;59568;52.128;5.434;2023-07-16T00:10:49;2.80;;;0.47;;
71715;SDS011;59568;52.128;5.434;2023-07-16T00:13:16;4.88;;;0.70;;
71715;SDS011;59568;52.128;5.434;2023-07-16T00:15:43;3.97;;;0.60;;
71715;SDS011;59568;52.128;5.434;2023-07-16T00:18:10;2.95;;;0.60;;
71715;SDS011;59568;52.128;5.434;2023-07-16T00:20:37;4.40;;;0.70;;
71715;SDS011;59568;52.128;5.434;2023-07-16T00:23:04;5.43;;;0.60;;
71715;SDS011;59568;52.128;5.434;2023-07-16T00:25:31;3.30;;;0.70;;
71715;SDS011;59568;52.128;5.434;2023-07-16T00:27:57;4.50;;;0.73;;
71715;SDS011;59568;52.128;5.434;2023-07-16T00:30:24;6.43;;;0.88;;
71715;SDS011;59568;52.128;5.434;2023-07-16T00:32:51;4.03;;;0.70;;
71715;SDS011;59568;52.128;5.434;2023-07-16T00:35:18;5.10;;;0.77;;
71715;SDS011;59568;52.128;5.434;2023-07-16T00:37:45;5.95;;;1.05;;
71715;SDS011;59568;52.128;5.434;2023-07-16T00:40:12;5.60;;;1.00;;
71715;SDS011;59568;52.128;5.434;2023-07-16T00:42:40;4.93;;;0.70;;
71715;SDS011;59568;52.128;5.434;2023-07-16T00:45:08;4.50;;;0.77;;
71715;SDS011;59568;52.128;5.434;2023-07-16T00:47:40;3.30;;;0.73;;
71715;SDS011;59568;52.128;5.434;2023-07-16T00:50:09;4.57;;;0.73;;
71715;SDS011;59568;52.128;5.434;2023-07-16T00:52:38;6.60;;;0.87;;
71715;SDS011;59568;52.128;5.434;2023-07-16T00:55:06;5.03;;;0.93;;
71715;SDS011;59568;52.128;5.434;2023-07-16T00:57:33;5.85;;;0.80;;
71715;SDS011;59568;52.128;5.434;2023-07-16T01:00:00;7.22;;;1.50;;
71715;SDS011;59568;52.128;5.434;2023-07-16T01:02:27;5.47;;;0.85;;
71715;SDS011;59568;52.128;5.434;2023-07-16T01:04:54;4.03;;;0.80;;
71715;SDS011;59568;52.128;5.434;2023-07-16T01:07:21;3.58;;;0.80;;
71715;SDS011;59568;52.128;5.434;2023-07-16T01:09:52;10.50;;;1.35;;
71715;SDS011;59568;52.128;5.434;2023-07-16T01:12:22;3.28;;;0.85;;
71715;SDS011;59568;52.128;5.434;2023-07-16T01:14:50;3.58;;;0.73;;
71715;SDS011;59568;52.128;5.434;2023-07-16T01:17:18;6.23;;;0.70;;
71715;SDS011;59568;52.128;5.434;2023-07-16T01:19:45;5.03;;;1.13;;
71715;SDS011;59568;52.128;5.434;2023-07-16T01:22:22;7.20;;;1.45;;
71715;SDS011;59568;52.128;5.434;2023-07-16T01:25:04;4.13;;;1.15;;
71715;SDS011;59568;52.128;5.434;2023-07-16T01:28:08;7.00;;;0.82;;
71715;SDS011;59568;52.128;5.434;2023-07-16T01:31:03;7.77;;;1.20;;
71715;SDS011;59568;52.128;5.434;2023-07-16T01:33:31;7.18;;;1.35;;
71715;SDS011;59568;52.128;5.434;2023-07-16T01:35:59;5.32;;;1.40;;
71715;SDS011;59568;52.128;5.434;2023-07-16T01:38:27;4.53;;;1.13;;
71715;SDS011;59568;52.128;5.434;2023-07-16T01:40:54;6.22;;;1.13;;
71715;SDS011;59568;52.128;5.434;2023-07-16T01:43:21;5.17;;;1.10;;
71715;SDS011;59568;52.128;5.434;2023-07-16T01:45:47;9.68;;;1.60;;
71715;SDS011;59568;52.128;5.434;2023-07-16T01:50:58;5.07;;;0.90;;
71715;SDS011;59568;52.128;5.434;2023-07-16T01:53:26;5.88;;;1.23;;
71715;SDS011;59568;52.128;5.434;2023-07-16T01:55:52;5.23;;;1.67;;
71715;SDS011;59568;52.128;5.434;2023-07-16T01:58:19;6.97;;;1.25;;
71715;SDS011;59568;52.128;5.434;2023-07-16T02:00:47;4.88;;;1.58;;
71715;SDS011;59568;52.128;5.434;2023-07-16T02:03:15;6.97;;;1.23;;
71715;SDS011;59568;52.128;5.434;2023-07-16T02:05:43;4.68;;;1.10;;
71715;SDS011;59568;52.128;5.434;2023-07-16T02:08:09;5.43;;;1.30;;
71715;SDS011;59568;52.128;5.434;2023-07-16T02:10:36;6.38;;;1.27;;
71715;SDS011;59568;52.128;5.434;2023-07-16T02:13:03;7.30;;;1.55;;
71715;SDS011;59568;52.128;5.434;2023-07-16T02:15:30;6.30;;;1.42;;
71715;SDS011;59568;52.128;5.434;2023-07-16T02:17:57;8.50;;;1.42;;
71715;SDS011;59568;52.128;5.434;2023-07-16T02:20:24;6.37;;;1.30;;
71715;SDS011;59568;52.128;5.434;2023-07-16T02:22:51;4.57;;;1.30;;
71715;SDS011;59568;52.128;5.434;2023-07-16T02:25:18;4.25;;;1.73;;
71715;SDS011;59568;52.128;5.434;2023-07-16T02:27:45;5.40;;;1.73;;
71715;SDS011;59568;52.128;5.434;2023-07-16T02:30:13;11.05;;;1.50;;
71715;SDS011;59568;52.128;5.434;2023-07-16T02:32:41;4.17;;;1.43;;
71715;SDS011;59568;52.128;5.434;2023-07-16T02:35:08;7.40;;;1.40;;
71715;SDS011;59568;52.128;5.434;2023-07-16T02:37:35;6.57;;;1.63;;
71715;SDS011;59568;52.128;5.434;2023-07-16T02:40:02;7.40;;;1.52;;
71715;SDS011;59568;52.128;5.434;2023-07-16T02:42:30;6.43;;;1.70;;
71715;SDS011;59568;52.128;5.434;2023-07-16T02:44:57;5.73;;;1.47;;
71715;SDS011;59568;52.128;5.434;2023-07-16T02:47:24;6.35;;;1.20;;
71715;SDS011;59568;52.128;5.434;2023-07-16T02:49:51;5.10;;;1.35;;
71715;SDS011;59568;52.128;5.434;2023-07-16T02:52:19;6.32;;;1.67;;
71715;SDS011;59568;52.128;5.434;2023-07-16T02:54:46;7.47;;;1.85;;
71715;SDS011;59568;52.128;5.434;2023-07-16T02:57:12;5.73;;;1.70;;
71715;SDS011;59568;52.128;5.434;2023-07-16T02:59:39;8.45;;;1.63;;
71715;SDS011;59568;52.128;5.434;2023-07-16T03:02:06;3.45;;;1.23;;
71715;SDS011;59568;52.128;5.434;2023-07-16T03:04:33;6.00;;;1.40;;
71715;SDS011;59568;52.128;5.434;2023-07-16T03:07:00;5.28;;;1.50;;
71715;SDS011;59568;52.128;5.434;2023-07-16T03:09:27;5.03;;;1.30;;
71715;SDS011;59568;52.128;5.434;2023-07-16T03:11:54;6.78;;;1.35;;
71715;SDS011;59568;52.128;5.434;2023-07-16T03:14:21;7.13;;;1.80;;
71715;SDS011;59568;52.128;5.434;2023-07-16T03:16:48;5.22;;;1.52;;
71715;SDS011;59568;52.128;5.434;2023-07-16T03:19:15;5.93;;;1.52;;
71715;SDS011;59568;52.128;5.434;2023-07-16T03:21:42;6.57;;;1.37;;
71715;SDS011;59568;52.128;5.434;2023-07-16T03:24:08;7.47;;;1.33;;
71715;SDS011;59568;52.128;5.434;2023-07-16T03:26:35;7.07;;;1.58;;
71715;SDS011;59568;52.128;5.434;2023-07-16T03:29:02;7.78;;;2.13;;
71715;SDS011;59568;52.128;5.434;2023-07-16T03:31:29;7.32;;;1.13;;
71715;SDS011;59568;52.128;5.434;2023-07-16T03:33:56;4.53;;;1.40;;
71715;SDS011;59568;52.128;5.434;2023-07-16T03:36:23;7.82;;;1.35;;
71715;SDS011;59568;52.128;5.434;2023-07-16T03:38:50;5.38;;;1.25;;
71715;SDS011;59568;52.128;5.434;2023-07-16T03:41:17;5.53;;;1.55;;
71715;SDS011;59568;52.128;5.434;2023-07-16T03:43:44;4.20;;;1.13;;
71715;SDS011;59568;52.128;5.434;2023-07-16T03:46:11;5.20;;;1.43;;
71715;SDS011;59568;52.128;5.434;2023-07-16T03:48:38;5.03;;;1.45;;
71715;SDS011;59568;52.128;5.434;2023-07-16T03:51:05;4.63;;;1.10;;
71715;SDS011;59568;52.128;5.434;2023-07-16T03:53:31;6.78;;;1.30;;
71715;SDS011;59568;52.128;5.434;2023-07-16T03:55:58;5.75;;;1.20;;
71715;SDS011;59568;52.128;5.434;2023-07-16T03:58:25;6.37;;;1.33;;
71715;SDS011;59568;52.128;5.434;2023-07-16T04:00:54;4.72;;;1.05;;
71715;SDS011;59568;52.128;5.434;2023-07-16T04:03:21;8.32;;;1.50;;
71715;SDS011;59568;52.128;5.434;2023-07-16T04:05:48;7.85;;;1.38;;
71715;SDS011;59568;52.128;5.434;2023-07-16T04:08:15;6.90;;;1.40;;
71715;SDS011;59568;52.128;5.434;2023-07-16T04:10:42;5.90;;;1.67;;
71715;SDS011;59568;52.128;5.434;2023-07-16T04:13:09;5.82;;;1.30;;
71715;SDS011;59568;52.128;5.434;2023-07-16T04:15:37;6.28;;;1.60;;
71715;SDS011;59568;52.128;5.434;2023-07-16T04:18:03;3.05;;;1.20;;
71715;SDS011;59568;52.128;5.434;2023-07-16T04:20:30;5.63;;;1.60;;
71715;SDS011;59568;52.128;5.434;2023-07-16T04:22:57;5.93;;;1.53;;
71715;SDS011;59568;52.128;5.434;2023-07-16T04:25:24;5.82;;;1.27;;
71715;SDS011;59568;52.128;5.434;2023-07-16T04:27:51;6.72;;;1.95;;
71715;SDS011;59568;52.128;5.434;2023-07-16T04:30:19;8.35;;;1.83;;
71715;SDS011;59568;52.128;5.434;2023-07-16T04:32:46;6.63;;;2.00;;
71715;SDS011;59568;52.128;5.434;2023-07-16T04:35:13;4.97;;;1.60;;
71715;SDS011;59568;52.128;5.434;2023-07-16T04:37:40;7.75;;;2.30;;
71715;SDS011;59568;52.128;5.434;2023-07-16T04:40:08;6.25;;;1.50;;
71715;SDS011;59568;52.128;5.434;2023-07-16T04:42:35;6.47;;;2.03;;
71715;SDS011;59568;52.128;5.434;2023-07-16T04:45:03;6.47;;;1.90;;
71715;SDS011;59568;52.128;5.434;2023-07-16T04:47:31;5.60;;;1.60;;
71715;SDS011;59568;52.128;5.434;2023-07-16T04:49:58;6.90;;;2.00;;
71715;SDS011;59568;52.128;5.434;2023-07-16T04:52:26;6.85;;;1.63;;
71715;SDS011;59568;52.128;5.434;2023-07-16T04:54:53;6.18;;;1.80;;
71715;SDS011;59568;52.128;5.434;2023-07-16T04:57:20;5.00;;;1.77;;
71715;SDS011;59568;52.128;5.434;2023-07-16T04:59:49;10.80;;;1.87;;
71715;SDS011;59568;52.128;5.434;2023-07-16T05:02:16;6.65;;;1.40;;
71715;SDS011;59568;52.128;5.434;2023-07-16T05:04:43;6.05;;;1.70;;
71715;SDS011;59568;52.128;5.434;2023-07-16T05:07:11;8.60;;;1.80;;
71715;SDS011;59568;52.128;5.434;2023-07-16T05:09:37;5.93;;;1.92;;
71715;SDS011;59568;52.128;5.434;2023-07-16T05:12:04;7.17;;;1.70;;
71715;SDS011;59568;52.128;5.434;2023-07-16T05:14:42;6.68;;;1.73;;
71715;SDS011;59568;52.128;5.434;2023-07-16T05:17:14;6.45;;;1.45;;
71715;SDS011;59568;52.128;5.434;2023-07-16T05:19:41;4.47;;;1.77;;
71715;SDS011;59568;52.128;5.434;2023-07-16T05:22:08;5.68;;;1.85;;
71715;SDS011;59568;52.128;5.434;2023-07-16T05:24:35;5.37;;;1.40;;
71715;SDS011;59568;52.128;5.434;2023-07-16T05:27:03;5.35;;;1.77;;
71715;SDS011;59568;52.128;5.434;2023-07-16T05:29:30;4.53;;;1.65;;
71715;SDS011;59568;52.128;5.434;2023-07-16T05:31:57;7.15;;;2.20;;
71715;SDS011;59568;52.128;5.434;2023-07-16T05:34:24;4.13;;;1.50;;
71715;SDS011;59568;52.128;5.434;2023-07-16T05:36:52;8.33;;;2.10;;
71715;SDS011;59568;52.128;5.434;2023-07-16T05:39:24;7.32;;;2.20;;
71715;SDS011;59568;52.128;5.434;2023-07-16T05:41:51;7.65;;;2.70;;
71715;SDS011;59568;52.128;5.434;2023-07-16T05:44:18;7.72;;;2.28;;
71715;SDS011;59568;52.128;5.434;2023-07-16T05:46:45;5.97;;;2.22;;
71715;SDS011;59568;52.128;5.434;2023-07-16T05:49:12;5.27;;;1.90;;
71715;SDS011;59568;52.128;5.434;2023-07-16T05:51:39;6.97;;;2.17;;
71715;SDS011;59568;52.128;5.434;2023-07-16T05:54:06;7.57;;;2.08;;
71715;SDS011;59568;52.128;5.434;2023-07-16T05:56:33;7.32;;;2.30;;
71715;SDS011;59568;52.128;5.434;2023-07-16T05:59:00;7.13;;;2.33;;
71715;SDS011;59568;52.128;5.434;2023-07-16T06:01:27;6.40;;;1.97;;
71715;SDS011;59568;52.128;5.434;2023-07-16T06:03:54;6.95;;;2.35;;
71715;SDS011;59568;52.128;5.434;2023-07-16T06:06:21;4.22;;;2.35;;
71715;SDS011;59568;52.128;5.434;2023-07-16T06:08:48;5.88;;;2.08;;
71715;SDS011;59568;52.128;5.434;2023-07-16T06:11:15;8.40;;;2.45;;
71715;SDS011;59568;52.128;5.434;2023-07-16T06:13:42;7.22;;;2.50;;
71715;SDS011;59568;52.128;5.434;2023-07-16T06:16:09;7.90;;;2.05;;
71715;SDS011;59568;52.128;5.434;2023-07-16T06:18:36;6.85;;;2.67;;
71715;SDS011;59568;52.128;5.434;2023-07-16T06:21:03;6.35;;;2.40;;
71715;SDS011;59568;52.128;5.434;2023-07-16T06:23:29;7.85;;;2.33;;
71715;SDS011;59568;52.128;5.434;2023-07-16T06:25:56;5.30;;;2.40;;
71715;SDS011;59568;52.128;5.434;2023-07-16T06:28:24;7.65;;;2.15;;
71715;SDS011;59568;52.128;5.434;2023-07-16T06:30:51;7.88;;;2.50;;
71715;SDS011;59568;52.128;5.434;2023-07-16T06:33:18;5.38;;;2.25;;
71715;SDS011;59568;52.128;5.434;2023-07-16T06:35:46;4.82;;;2.08;;
71715;SDS011;59568;52.128;5.434;2023-07-16T06:38:14;6.33;;;2.10;;
71715;SDS011;59568;52.128;5.434;2023-07-16T06:40:47;7.85;;;2.55;;
71715;SDS011;59568;52.128;5.434;2023-07-16T06:43:16;7.60;;;2.67;;
71715;SDS011;59568;52.128;5.434;2023-07-16T06:45:43;6.38;;;2.13;;
71715;SDS011;59568;52.128;5.434;2023-07-16T06:48:10;7.63;;;2.50;;
71715;SDS011;59568;52.128;5.434;2023-07-16T06:50:37;8.87;;;2.30;;
71715;SDS011;59568;52.128;5.434;2023-07-16T06:53:04;6.05;;;2.38;;
71715;SDS011;59568;52.128;5.434;2023-07-16T06:55:31;6.40;;;2.88;;
71715;SDS011;59568;52.128;5.434;2023-07-16T06:57:59;5.35;;;2.25;;
71715;SDS011;59568;52.128;5.434;2023-07-16T07:00:26;6.13;;;2.33;;
71715;SDS011;59568;52.128;5.434;2023-07-16T07:02:53;8.00;;;2.50;;
71715;SDS011;59568;52.128;5.434;2023-07-16T07:05:20;6.13;;;2.15;;
71715;SDS011;59568;52.128;5.434;2023-07-16T07:07:47;7.47;;;2.58;;
71715;SDS011;59568;52.128;5.434;2023-07-16T07:10:14;5.72;;;2.60;;
71715;SDS011;59568;52.128;5.434;2023-07-16T07:12:41;6.28;;;2.60;;
71715;SDS011;59568;52.128;5.434;2023-07-16T07:15:08;5.30;;;2.30;;
71715;SDS011;59568;52.128;5.434;2023-07-16T07:17:35;6.18;;;2.60;;
71715;SDS011;59568;52.128;5.434;2023-07-16T07:20:03;6.88;;;2.33;;
71715;SDS011;59568;52.128;5.434;2023-07-16T07:22:31;7.47;;;2.40;;
71715;SDS011;59568;52.128;5.434;2023-07-16T07:24:58;9.85;;;2.38;;
71715;SDS011;59568;52.128;5.434;2023-07-16T07:27:25;7.17;;;2.83;;
71715;SDS011;59568;52.128;5.434;2023-07-16T07:29:52;6.25;;;2.20;;
71715;SDS011;59568;52.128;5.434;2023-07-16T07:32:19;6.32;;;2.40;;
71715;SDS011;59568;52.128;5.434;2023-07-16T07:34:47;8.60;;;2.20;;
71715;SDS011;59568;52.128;5.434;2023-07-16T07:37:15;7.18;;;2.55;;
71715;SDS011;59568;52.128;5.434;2023-07-16T07:39:42;6.57;;;2.10;;
71715;SDS011;59568;52.128;5.434;2023-07-16T07:42:08;8.73;;;2.63;;
71715;SDS011;59568;52.128;5.434;2023-07-16T07:44:36;8.20;;;2.53;;
71715;SDS011;59568;52.128;5.434;2023-07-16T07:47:04;8.27;;;2.38;;
71715;SDS011;59568;52.128;5.434;2023-07-16T07:49:31;7.53;;;2.72;;
71715;SDS011;59568;52.128;5.434;2023-07-16T07:51:58;7.37;;;2.60;;
71715;SDS011;59568;52.128;5.434;2023-07-16T07:54:25;7.50;;;2.75;;
71715;SDS011;59568;52.128;5.434;2023-07-16T07:56:52;5.38;;;2.17;;
71715;SDS011;59568;52.128;5.434;2023-07-16T07:59:19;9.10;;;2.30;;
71715;SDS011;59568;52.128;5.434;2023-07-16T08:01:46;7.38;;;2.20;;
71715;SDS011;59568;52.128;5.434;2023-07-16T08:04:13;8.97;;;2.60;;
71715;SDS011;59568;52.128;5.434;2023-07-16T08:06:40;7.00;;;2.13;;
71715;SDS011;59568;52.128;5.434;2023-07-16T08:09:07;7.78;;;3.00;;
71715;SDS011;59568;52.128;5.434;2023-07-16T08:11:34;6.85;;;2.47;;
71715;SDS011;59568;52.128;5.434;2023-07-16T08:14:01;7.07;;;2.30;;
71715;SDS011;59568;52.128;5.434;2023-07-16T08:16:28;7.97;;;2.60;;
71715;SDS011;59568;52.128;5.434;2023-07-16T08:18:55;9.80;;;3.17;;
71715;SDS011;59568;52.128;5.434;2023-07-16T08:21:22;6.28;;;3.30;;
71715;SDS011;59568;52.128;5.434;2023-07-16T08:23:49;7.45;;;2.40;;
71715;SDS011;59568;52.128;5.434;2023-07-16T08:26:16;9.15;;;2.95;;
71715;SDS011;59568;52.128;5.434;2023-07-16T08:28:44;6.23;;;2.53;;
71715;SDS011;59568;52.128;5.434;2023-07-16T08:31:11;8.20;;;2.38;;
71715;SDS011;59568;52.128;5.434;2023-07-16T08:33:39;9.32;;;3.35;;
71715;SDS011;59568;52.128;5.434;2023-07-16T08:36:06;10.63;;;2.78;;
71715;SDS011;59568;52.128;5.434;2023-07-16T08:38:33;7.28;;;2.97;;
71715;SDS011;59568;52.128;5.434;2023-07-16T08:41:00;7.23;;;2.40;;
71715;SDS011;59568;52.128;5.434;2023-07-16T08:43:28;5.63;;;2.33;;
71715;SDS011;59568;52.128;5.434;2023-07-16T08:46:00;5.88;;;2.40;;
71715;SDS011;59568;52.128;5.434;2023-07-16T08:48:28;6.78;;;2.22;;
71715;SDS011;59568;52.128;5.434;2023-07-16T08:50:57;5.80;;;2.50;;
71715;SDS011;59568;52.128;5.434;2023-07-16T08:53:25;10.50;;;2.93;;
71715;SDS011;59568;52.128;5.434;2023-07-16T08:55:52;8.55;;;2.65;;
71715;SDS011;59568;52.128;5.434;2023-07-16T08:58:23;5.03;;;2.40;;
71715;SDS011;59568;52.128;5.434;2023-07-16T09:00:51;7.07;;;3.10;;
71715;SDS011;59568;52.128;5.434;2023-07-16T09:03:18;7.72;;;3.17;;
71715;SDS011;59568;52.128;5.434;2023-07-16T09:05:45;5.97;;;2.60;;
71715;SDS011;59568;52.128;5.434;2023-07-16T09:08:12;9.93;;;2.20;;
71715;SDS011;59568;52.128;5.434;2023-07-16T09:10:40;4.85;;;2.60;;
71715;SDS011;59568;52.128;5.434;2023-07-16T09:13:07;7.80;;;2.83;;
71715;SDS011;59568;52.128;5.434;2023-07-16T09:15:35;7.53;;;2.30;;
71715;SDS011;59568;52.128;5.434;2023-07-16T09:18:02;6.63;;;2.50;;
71715;SDS011;59568;52.128;5.434;2023-07-16T09:20:29;5.25;;;2.10;;
71715;SDS011;59568;52.128;5.434;2023-07-16T09:23:00;7.53;;;2.47;;
71715;SDS011;59568;52.128;5.434;2023-07-16T09:25:30;7.55;;;2.90;;
71715;SDS011;59568;52.128;5.434;2023-07-16T09:28:01;7.65;;;3.03;;
71715;SDS011;59568;52.128;5.434;2023-07-16T09:30:32;7.45;;;3.25;;
71715;SDS011;59568;52.128;5.434;2023-07-16T09:35:47;4.85;;;2.28;;
71715;SDS011;59568;52.128;5.434;2023-07-16T09:38:16;5.75;;;2.45;;
71715;SDS011;59568;52.128;5.434;2023-07-16T09:40:44;6.28;;;2.53;;
71715;SDS011;59568;52.128;5.434;2023-07-16T09:43:12;7.43;;;2.53;;
71715;SDS011;59568;52.128;5.434;2023-07-16T09:45:40;5.45;;;2.60;;
71715;SDS011;59568;52.128;5.434;2023-07-16T09:48:09;6.30;;;2.20;;
71715;SDS011;59568;52.128;5.434;2023-07-16T09:50:36;8.02;;;2.10;;
71715;SDS011;59568;52.128;5.434;2023-07-16T09:53:05;7.47;;;2.40;;
71715;SDS011;59568;52.128;5.434;2023-07-16T09:55:34;5.83;;;2.40;;
71715;SDS011;59568;52.128;5.434;2023-07-16T09:58:08;8.23;;;2.40;;
71715;SDS011;59568;52.128;5.434;2023-07-16T10:00:37;10.15;;;2.72;;
71715;SDS011;59568;52.128;5.434;2023-07-16T10:03:07;7.70;;;2.45;;
71715;SDS011;59568;52.128;5.434;2023-07-16T10:05:38;6.72;;;2.13;;
71715;SDS011;59568;52.128;5.434;2023-07-16T10:08:14;6.63;;;2.67;;
71715;SDS011;59568;52.128;5.434;2023-07-16T10:10:44;7.68;;;2.65;;
71715;SDS011;59568;52.128;5.434;2023-07-16T10:13:15;6.82;;;2.80;;
71715;SDS011;59568;52.128;5.434;2023-07-16T10:15:58;4.60;;;2.20;;
71715;SDS011;59568;52.128;5.434;2023-07-16T10:18:31;5.47;;;2.33;;
71715;SDS011;59568;52.128;5.434;2023-07-16T10:21:04;5.35;;;2.40;;
71715;SDS011;59568;52.128;5.434;2023-07-16T10:23:38;7.00;;;2.70;;
71715;SDS011;59568;52.128;5.434;2023-07-16T10:26:06;6.57;;;2.85;;
71715;SDS011;59568;52.128;5.434;2023-07-16T10:28:35;6.30;;;2.85;;
71715;SDS011;59568;52.128;5.434;2023-07-16T10:31:03;7.07;;;2.40;;
71715;SDS011;59568;52.128;5.434;2023-07-16T10:33:30;8.03;;;2.47;;
71715;SDS011;59568;52.128;5.434;2023-07-16T10:35:57;7.45;;;2.20;;
71715;SDS011;59568;52.128;5.434;2023-07-16T10:38:27;5.97;;;2.50;;
71715;SDS011;59568;52.128;5.434;2023-07-16T10:40:55;6.60;;;2.17;;
71715;SDS011;59568;52.128;5.434;2023-07-16T10:43:23;5.40;;;2.65;;
71715;SDS011;59568;52.128;5.434;2023-07-16T10:45:50;7.43;;;2.05;;
71715;SDS011;59568;52.128;5.434;2023-07-16T10:48:17;7.47;;;2.50;;
71715;SDS011;59568;52.128;5.434;2023-07-16T10:50:53;5.15;;;2.20;;
71715;SDS011;59568;52.128;5.434;2023-07-16T10:53:21;6.07;;;2.33;;
71715;SDS011;59568;52.128;5.434;2023-07-16T10:55:48;3.70;;;1.80;;
71715;SDS011;59568;52.128;5.434;2023-07-16T10:58:14;4.93;;;2.28;;
71715;SDS011;59568;52.128;5.434;2023-07-16T11:00:41;5.07;;;2.30;;
71715;SDS011;59568;52.128;5.434;2023-07-16T11:03:09;8.48;;;2.10;;
71715;SDS011;59568;52.128;5.434;2023-07-16T11:05:36;5.25;;;2.00;;
71715;SDS011;59568;52.128;5.434;2023-07-16T11:08:03;8.00;;;3.13;;
71715;SDS011;59568;52.128;5.434;2023-07-16T11:10:30;5.65;;;2.00;;
71715;SDS011;59568;52.128;5.434;2023-07-16T11:12:57;8.02;;;2.60;;
71715;SDS011;59568;52.128;5.434;2023-07-16T11:15:32;5.18;;;2.38;;
71715;SDS011;59568;52.128;5.434;2023-07-16T11:18:00;7.28;;;2.45;;
71715;SDS011;59568;52.128;5.434;2023-07-16T11:20:28;10.40;;;3.00;;
71715;SDS011;59568;52.128;5.434;2023-07-16T11:22:57;7.50;;;2.83;;
71715;SDS011;59568;52.128;5.434;2023-07-16T11:25:25;8.15;;;2.05;;
71715;SDS011;59568;52.128;5.434;2023-07-16T11:27:56;5.53;;;2.10;;
71715;SDS011;59568;52.128;5.434;2023-07-16T11:30:23;6.32;;;2.10;;
71715;SDS011;59568;52.128;5.434;2023-07-16T11:32:51;4.57;;;2.10;;
71715;SDS011;59568;52.128;5.434;2023-07-16T11:35:19;4.85;;;1.88;;
71715;SDS011;59568;52.128;5.434;2023-07-16T11:37:47;5.53;;;2.38;;
71715;SDS011;59568;52.128;5.434;2023-07-16T11:40:15;5.00;;;2.08;;
71715;SDS011;59568;52.128;5.434;2023-07-16T11:42:46;5.18;;;2.25;;
71715;SDS011;59568;52.128;5.434;2023-07-16T11:45:20;5.88;;;2.47;;
71715;SDS011;59568;52.128;5.434;2023-07-16T11:47:57;4.10;;;1.83;;
71715;SDS011;59568;52.128;5.434;2023-07-16T11:50:26;5.32;;;1.60;;
71715;SDS011;59568;52.128;5.434;2023-07-16T11:52:54;3.90;;;1.67;;
71715;SDS011;59568;52.128;5.434;2023-07-16T11:55:22;5.93;;;2.08;;
71715;SDS011;59568;52.128;5.434;2023-07-16T11:57:49;5.43;;;1.70;;
71715;SDS011;59568;52.128;5.434;2023-07-16T12:00:16;5.72;;;1.60;;
71715;SDS011;59568;52.128;5.434;2023-07-16T12:02:46;5.53;;;1.05;;
71715;SDS011;59568;52.128;5.434;2023-07-16T12:05:19;3.88;;;0.85;;
71715;SDS011;59568;52.128;5.434;2023-07-16T12:07:56;3.60;;;0.70;;
71715;SDS011;59568;52.128;5.434;2023-07-16T12:10:23;3.20;;;0.43;;
71715;SDS011;59568;52.128;5.434;2023-07-16T12:12:49;4.15;;;0.70;;
71715;SDS011;59568;52.128;5.434;2023-07-16T12:15:16;6.18;;;0.70;;
71715;SDS011;59568;52.128;5.434;2023-07-16T12:17:43;1.95;;;0.55;;
71715;SDS011;59568;52.128;5.434;2023-07-16T12:20:11;2.40;;;0.50;;
71715;SDS011;59568;52.128;5.434;2023-07-16T12:22:38;4.80;;;0.50;;
71715;SDS011;59568;52.128;5.434;2023-07-16T12:25:05;2.50;;;0.73;;
71715;SDS011;59568;52.128;5.434;2023-07-16T12:27:32;3.50;;;0.60;;
71715;SDS011;59568;52.128;5.434;2023-07-16T12:29:59;2.65;;;0.70;;
71715;SDS011;59568;52.128;5.434;2023-07-16T12:32:26;4.97;;;0.80;;
71715;SDS011;59568;52.128;5.434;2023-07-16T12:34:53;2.15;;;0.90;;
71715;SDS011;59568;52.128;5.434;2023-07-16T12:37:21;4.35;;;1.10;;
71715;SDS011;59568;52.128;5.434;2023-07-16T12:39:48;3.85;;;0.63;;
71715;SDS011;59568;52.128;5.434;2023-07-16T12:42:15;2.60;;;0.70;;
71715;SDS011;59568;52.128;5.434;2023-07-16T12:44:42;4.85;;;1.10;;
71715;SDS011;59568;52.128;5.434;2023-07-16T12:47:09;2.63;;;0.90;;
71715;SDS011;59568;52.128;5.434;2023-07-16T12:49:36;3.53;;;0.65;;
71715;SDS011;59568;52.128;5.434;2023-07-16T12:52:03;5.00;;;0.73;;
71715;SDS011;59568;52.128;5.434;2023-07-16T12:54:30;5.93;;;0.80;;
71715;SDS011;59568;52.128;5.434;2023-07-16T12:56:57;3.70;;;0.50;;
71715;SDS011;59568;52.128;5.434;2023-07-16T12:59:24;5.70;;;0.50;;
71715;SDS011;59568;52.128;5.434;2023-07-16T13:01:51;2.45;;;0.50;;
71715;SDS011;59568;52.128;5.434;2023-07-16T13:04:18;3.60;;;0.70;;
71715;SDS011;59568;52.128;5.434;2023-07-16T13:06:45;3.92;;;0.60;;
71715;SDS011;59568;52.128;5.434;2023-07-16T13:09:14;3.13;;;0.50;;
71715;SDS011;59568;52.128;5.434;2023-07-16T13:11:42;4.15;;;0.40;;
71715;SDS011;59568;52.128;5.434;2023-07-16T13:14:09;4.72;;;0.50;;
71715;SDS011;59568;52.128;5.434;2023-07-16T13:16:36;3.58;;;0.47;;
71715;SDS011;59568;52.128;5.434;2023-07-16T13:19:03;2.65;;;0.40;;
71715;SDS011;59568;52.128;5.434;2023-07-16T13:21:30;2.97;;;0.47;;
71715;SDS011;59568;52.128;5.434;2023-07-16T13:23:57;4.32;;;0.60;;
71715;SDS011;59568;52.128;5.434;2023-07-16T13:26:24;3.17;;;0.30;;
71715;SDS011;59568;52.128;5.434;2023-07-16T13:28:51;1.85;;;0.50;;
71715;SDS011;59568;52.128;5.434;2023-07-16T13:31:19;4.53;;;0.40;;
71715;SDS011;59568;52.128;5.434;2023-07-16T13:33:46;2.67;;;0.43;;
71715;SDS011;59568;52.128;5.434;2023-07-16T13:36:13;4.25;;;0.75;;
71715;SDS011;59568;52.128;5.434;2023-07-16T13:38:40;2.58;;;0.60;;
71715;SDS011;59568;52.128;5.434;2023-07-16T13:41:07;7.05;;;0.80;;
71715;SDS011;59568;52.128;5.434;2023-07-16T13:43:34;2.80;;;0.35;;
71715;SDS011;59568;52.128;5.434;2023-07-16T13:46:01;3.95;;;0.40;;
71715;SDS011;59568;52.128;5.434;2023-07-16T13:48:28;2.95;;;0.40;;
71715;SDS011;59568;52.128;5.434;2023-07-16T13:51:06;3.58;;;0.30;;
71715;SDS011;59568;52.128;5.434;2023-07-16T13:53:33;1.63;;;0.30;;
71715;SDS011;59568;52.128;5.434;2023-07-16T13:56:00;3.30;;;0.40;;
71715;SDS011;59568;52.128;5.434;2023-07-16T13:58:27;1.42;;;0.32;;
71715;SDS011;59568;52.128;5.434;2023-07-16T14:00:54;3.45;;;0.57;;
71715;SDS011;59568;52.128;5.434;2023-07-16T14:03:21;1.88;;;0.40;;
71715;SDS011;59568;52.128;5.434;2023-07-16T14:05:48;4.30;;;0.40;;
71715;SDS011;59568;52.128;5.434;2023-07-16T14:08:15;2.72;;;0.38;;
71715;SDS011;59568;52.128;5.434;2023-07-16T14:10:42;3.83;;;0.30;;
71715;SDS011;59568;52.128;5.434;2023-07-16T14:13:09;3.42;;;0.50;;
71715;SDS011;59568;52.128;5.434;2023-07-16T14:15:36;2.05;;;0.50;;
71715;SDS011;59568;52.128;5.434;2023-07-16T14:18:03;2.95;;;0.30;;
71715;SDS011;59568;52.128;5.434;2023-07-16T14:20:30;1.83;;;0.30;;
71715;SDS011;59568;52.128;5.434;2023-07-16T14:22:57;4.35;;;0.30;;
71715;SDS011;59568;52.128;5.434;2023-07-16T14:25:25;1.85;;;0.20;;
71715;SDS011;59568;52.128;5.434;2023-07-16T14:27:52;3.63;;;0.25;;
71715;SDS011;59568;52.128;5.434;2023-07-16T14:30:19;2.60;;;0.40;;
71715;SDS011;59568;52.128;5.434;2023-07-16T14:32:46;1.77;;;0.30;;
71715;SDS011;59568;52.128;5.434;2023-07-16T14:35:13;5.47;;;0.30;;
71715;SDS011;59568;52.128;5.434;2023-07-16T14:38:00;2.53;;;0.30;;
71715;SDS011;59568;52.128;5.434;2023-07-16T14:40:27;2.22;;;0.30;;
71715;SDS011;59568;52.128;5.434;2023-07-16T14:42:54;5.63;;;0.30;;
71715;SDS011;59568;52.128;5.434;2023-07-16T14:45:21;1.48;;;0.30;;
71715;SDS011;59568;52.128;5.434;2023-07-16T14:47:48;1.63;;;0.40;;
71715;SDS011;59568;52.128;5.434;2023-07-16T14:50:15;2.70;;;0.30;;
71715;SDS011;59568;52.128;5.434;2023-07-16T14:52:42;2.65;;;0.40;;
71715;SDS011;59568;52.128;5.434;2023-07-16T14:55:09;2.00;;;0.45;;
71715;SDS011;59568;52.128;5.434;2023-07-16T14:57:36;2.50;;;0.40;;